Time;durP1;ratioP1;P1;durP2;ratioP2;P2;SDS_P1;SDS_P2;PMS_P1;PMS_P2;Temp;Humidity;BMP_temperature;BMP_pressure;BME280_temperature;BME280_humidity;BME280_pressure;Samples;Min_cycle;Max_cycle;Signal;HPM_P1;HPM_P2
2023/05/17 00:01:10;;;;;;;41.50;7.70;;;;;;;;;;5012680;28;20041;-35
2023/05/17 00:03:38;;;;;;;40.22;8.57;;;;;;;;;;5011171;28;20057;-36
2023/05/17 00:06:05;;;;;;;47.42;9.45;;;;;;;;;;5011407;28;20107;-36
2023/05/17 00:08:32;;;;;;;58.63;10.10;;;;;;;;;;5013112;28;20380;-36
2023/05/17 00:10:59;;;;;;;54.03;10.85;;;;;;;;;;5013596;28;20045;-37
2023/05/17 00:13:26;;;;;;;57.80;10.02;;;;;;;;;;5012172;28;20030;-35
2023/05/17 00:15:53;;;;;;;56.80;11.18;;;;;;;;;;5013679;28;20041;-38
2023/05/17 00:18:20;;;;;;;63.05;13.52;;;;;;;;;;5013198;28;20079;-35
2023/05/17 00:20:46;;;;;;;64.68;14.32;;;;;;;;;;5009921;28;20045;-37
2023/05/17 00:23:13;;;;;;;67.90;14.20;;;;;;;;;;5013653;28;20025;-38
2023/05/17 00:25:41;;;;;;;69.25;15.18;;;;;;;;;;5013496;28;20034;-37
2023/05/17 00:28:08;;;;;;;86.63;16.50;;;;;;;;;;5013413;28;20029;-38
2023/05/17 00:30:35;;;;;;;75.85;16.48;;;;;;;;;;5015544;28;20038;-38
2023/05/17 00:33:01;;;;;;;62.50;15.65;;;;;;;;;;5013440;28;20026;-36
2023/05/17 00:35:28;;;;;;;65.40;14.90;;;;;;;;;;5012844;28;20033;-39
2023/05/17 00:37:55;;;;;;;68.88;15.98;;;;;;;;;;5011035;28;20533;-37
2023/05/17 00:40:22;;;;;;;83.15;17.05;;;;;;;;;;5028656;28;20048;-36
2023/05/17 00:42:49;;;;;;;76.15;17.30;;;;;;;;;;5013960;28;20032;-36
2023/05/17 00:45:16;;;;;;;75.47;20.60;;;;;;;;;;5013919;28;20025;-36
2023/05/17 00:47:43;;;;;;;86.47;30.30;;;;;;;;;;5013292;28;20021;-38
2023/05/17 00:50:11;;;;;;;111.72;43.67;;;;;;;;;;5012760;28;20379;-37
2023/05/17 00:52:38;;;;;;;118.45;52.00;;;;;;;;;;5013228;28;20041;-36
2023/05/17 00:55:05;;;;;;;140.43;59.28;;;;;;;;;;5013817;28;20028;-36
2023/05/17 00:57:32;;;;;;;156.35;64.05;;;;;;;;;;5012359;28;20052;-36
2023/05/17 00:59:59;;;;;;;153.88;65.32;;;;;;;;;;5013597;28;20068;-36
2023/05/17 01:02:26;;;;;;;147.40;61.80;;;;;;;;;;5013147;28;20384;-38
2023/05/17 01:04:53;;;;;;;135.52;57.10;;;;;;;;;;5012929;28;20442;-38
2023/05/17 01:07:20;;;;;;;144.25;55.00;;;;;;;;;;5010333;28;20498;-36
2023/05/17 01:09:47;;;;;;;135.55;51.10;;;;;;;;;;5012847;28;20134;-38
2023/05/17 01:12:29;;;;;;;129.15;48.58;;;;;;;;;;5012880;28;20029;-38
2023/05/17 01:15:14;;;;;;;117.43;43.42;;;;;;;;;;5012269;28;20038;-39
2023/05/17 01:17:54;;;;;;;124.03;45.83;;;;;;;;;;5012022;28;20034;-36
2023/05/17 01:20:25;;;;;;;125.28;43.13;;;;;;;;;;5011904;28;20030;-38
2023/05/17 01:23:10;;;;;;;119.13;42.22;;;;;;;;;;5012402;28;20061;-37
2023/05/17 01:25:42;;;;;;;125.50;41.58;;;;;;;;;;5012414;28;20026;-37
2023/05/17 01:28:10;;;;;;;124.43;41.50;;;;;;;;;;5009597;28;20608;-38
2023/05/17 01:30:38;;;;;;;103.05;38.72;;;;;;;;;;5011153;28;20033;-42
2023/05/17 01:33:05;;;;;;;120.78;39.65;;;;;;;;;;5011446;28;20034;-36
2023/05/17 01:35:32;;;;;;;116.95;38.67;;;;;;;;;;5012033;28;20034;-38
2023/05/17 01:37:59;;;;;;;111.80;37.25;;;;;;;;;;5012271;28;20065;-36
2023/05/17 01:40:26;;;;;;;107.18;37.47;;;;;;;;;;5010499;28;20044;-35
2023/05/17 01:42:59;;;;;;;106.68;37.50;;;;;;;;;;5011867;28;20029;-36
2023/05/17 01:45:30;;;;;;;110.30;36.53;;;;;;;;;;5009583;28;20052;-36
2023/05/17 01:47:57;;;;;;;103.22;36.92;;;;;;;;;;5011340;28;20201;-38
2023/05/17 01:50:25;;;;;;;102.22;34.58;;;;;;;;;;5011928;28;20148;-40
2023/05/17 01:52:59;;;;;;;107.55;34.90;;;;;;;;;;5011823;28;20514;-38
2023/05/17 01:55:47;;;;;;;94.63;33.40;;;;;;;;;;5009689;28;20044;-36
2023/05/17 01:58:14;;;;;;;103.10;33.33;;;;;;;;;;5009361;28;20096;-36
2023/05/17 02:00:42;;;;;;;90.28;32.35;;;;;;;;;;5010885;28;20037;-38
2023/05/17 02:03:13;;;;;;;105.93;33.22;;;;;;;;;;5011634;28;20167;-36
2023/05/17 02:05:40;;;;;;;96.28;31.40;;;;;;;;;;5011326;28;20030;-39
2023/05/17 02:08:07;;;;;;;109.35;31.88;;;;;;;;;;5011824;28;20073;-38
2023/05/17 02:10:34;;;;;;;88.75;29.85;;;;;;;;;;5010793;28;20030;-36
2023/05/17 02:13:01;;;;;;;115.57;30.90;;;;;;;;;;5011261;28;20036;-36
2023/05/17 02:15:28;;;;;;;116.88;32.10;;;;;;;;;;5011505;28;20029;-38
2023/05/17 02:17:55;;;;;;;104.75;30.42;;;;;;;;;;5012392;28;20036;-38
2023/05/17 02:20:22;;;;;;;102.65;30.35;;;;;;;;;;5011424;28;20033;-35
2023/05/17 02:22:49;;;;;;;86.28;28.90;;;;;;;;;;5008367;28;20040;-39
2023/05/17 02:25:16;;;;;;;92.40;28.17;;;;;;;;;;5010738;28;20026;-36
2023/05/17 02:27:43;;;;;;;97.53;27.95;;;;;;;;;;5010706;28;20030;-36
2023/05/17 02:30:12;;;;;;;88.20;27.38;;;;;;;;;;5010636;28;20025;-38
2023/05/17 02:32:40;;;;;;;86.80;27.42;;;;;;;;;;5010634;28;20046;-40
2023/05/17 02:35:08;;;;;;;96.18;28.80;;;;;;;;;;5009037;28;20064;-35
2023/05/17 02:37:35;;;;;;;95.88;27.05;;;;;;;;;;5011861;28;20030;-36
2023/05/17 02:40:07;;;;;;;78.53;26.48;;;;;;;;;;5011813;28;20408;-36
2023/05/17 02:42:34;;;;;;;85.43;26.52;;;;;;;;;;5011780;28;20034;-36
2023/05/17 02:45:01;;;;;;;92.95;25.38;;;;;;;;;;5011938;28;20026;-36
2023/05/17 02:47:28;;;;;;;80.70;25.42;;;;;;;;;;5011971;28;20026;-37
2023/05/17 02:49:55;;;;;;;90.13;26.77;;;;;;;;;;5011884;28;20044;-36
2023/05/17 02:52:22;;;;;;;81.28;23.67;;;;;;;;;;5011751;28;20041;-37
2023/05/17 02:54:50;;;;;;;85.32;23.75;;;;;;;;;;5011847;28;20057;-36
2023/05/17 02:57:17;;;;;;;77.03;24.15;;;;;;;;;;5011630;28;20049;-36
2023/05/17 02:59:44;;;;;;;75.40;24.08;;;;;;;;;;5011814;28;20503;-36
2023/05/17 03:02:11;;;;;;;79.78;23.38;;;;;;;;;;5011734;28;20100;-36
2023/05/17 03:04:38;;;;;;;79.90;23.25;;;;;;;;;;5011795;28;20026;-36
2023/05/17 03:07:05;;;;;;;86.05;23.88;;;;;;;;;;5011812;28;20022;-36
2023/05/17 03:09:32;;;;;;;71.32;22.50;;;;;;;;;;5011716;28;20057;-36
2023/05/17 03:11:59;;;;;;;74.78;22.40;;;;;;;;;;5011599;28;20032;-36
2023/05/17 03:14:26;;;;;;;73.78;21.38;;;;;;;;;;5011561;28;20022;-36
2023/05/17 03:16:53;;;;;;;70.93;21.88;;;;;;;;;;5011660;28;20033;-36
2023/05/17 03:19:20;;;;;;;75.70;22.30;;;;;;;;;;5011629;28;20021;-36
2023/05/17 03:21:47;;;;;;;70.38;21.98;;;;;;;;;;5015109;28;20022;-36
2023/05/17 03:24:14;;;;;;;71.57;21.75;;;;;;;;;;5015540;28;20064;-36
2023/05/17 03:26:41;;;;;;;76.38;21.98;;;;;;;;;;5015492;28;20022;-37
2023/05/17 03:29:08;;;;;;;62.28;20.23;;;;;;;;;;5015350;28;20036;-37
2023/05/17 03:31:35;;;;;;;67.82;19.77;;;;;;;;;;5015300;28;20018;-36
2023/05/17 03:34:02;;;;;;;67.20;19.85;;;;;;;;;;5015341;28;20075;-36
2023/05/17 03:36:30;;;;;;;67.35;19.10;;;;;;;;;;5015212;28;20038;-36
2023/05/17 03:38:57;;;;;;;68.70;18.48;;;;;;;;;;5015129;28;20096;-37
2023/05/17 03:41:24;;;;;;;61.50;19.30;;;;;;;;;;5015073;28;20404;-36
2023/05/17 03:43:51;;;;;;;71.40;19.77;;;;;;;;;;5015148;28;20062;-37
2023/05/17 03:46:18;;;;;;;53.42;18.05;;;;;;;;;;5015172;28;20022;-36
2023/05/17 03:48:45;;;;;;;59.72;18.17;;;;;;;;;;5015107;28;20037;-36
2023/05/17 03:51:12;;;;;;;69.30;18.50;;;;;;;;;;5014855;28;20033;-36
2023/05/17 03:53:42;;;;;;;58.42;17.98;;;;;;;;;;5015058;28;20030;-36
2023/05/17 03:56:09;;;;;;;57.78;17.50;;;;;;;;;;5014697;28;20465;-37
2023/05/17 03:58:36;;;;;;;61.00;17.90;;;;;;;;;;5014922;28;20111;-36
2023/05/17 04:01:03;;;;;;;63.05;17.98;;;;;;;;;;5014694;28;20568;-36
2023/05/17 04:03:30;;;;;;;59.90;16.52;;;;;;;;;;5014770;28;20030;-36
2023/05/17 04:06:05;;;;;;;56.50;17.33;;;;;;;;;;5014727;28;20107;-37
2023/05/17 04:08:33;;;;;;;53.60;15.93;;;;;;;;;;5014643;28;20140;-36
2023/05/17 04:11:08;;;;;;;58.10;16.65;;;;;;;;;;5014538;28;20496;-36
2023/05/17 04:13:36;;;;;;;51.22;15.90;;;;;;;;;;5014823;28;20443;-36
2023/05/17 04:16:03;;;;;;;58.05;16.92;;;;;;;;;;5014507;28;20026;-36
2023/05/17 04:18:30;;;;;;;47.15;15.75;;;;;;;;;;5014643;28;20476;-36
2023/05/17 04:20:57;;;;;;;56.83;16.98;;;;;;;;;;5014354;28;20045;-36
2023/05/17 04:23:24;;;;;;;57.75;15.90;;;;;;;;;;5014530;28;20546;-36
2023/05/17 04:25:51;;;;;;;51.28;15.95;;;;;;;;;;5012432;28;20076;-40
2023/05/17 04:28:20;;;;;;;48.30;14.63;;;;;;;;;;5014416;28;20021;-38
2023/05/17 04:30:47;;;;;;;50.63;15.43;;;;;;;;;;5014036;28;20476;-41
2023/05/17 04:33:14;;;;;;;53.47;15.45;;;;;;;;;;5013260;28;20029;-38
2023/05/17 04:35:42;;;;;;;48.60;14.95;;;;;;;;;;5014330;28;20050;-38
2023/05/17 04:38:09;;;;;;;49.47;15.20;;;;;;;;;;5014050;28;20034;-41
2023/05/17 04:40:36;;;;;;;45.55;14.57;;;;;;;;;;5014112;28;20034;-38
2023/05/17 04:43:03;;;;;;;46.40;14.30;;;;;;;;;;5014190;28;20384;-38
2023/05/17 04:45:32;;;;;;;48.05;14.25;;;;;;;;;;5029229;28;20026;-40
2023/05/17 04:48:00;;;;;;;37.65;13.23;;;;;;;;;;5013914;28;20037;-38
2023/05/17 04:50:27;;;;;;;52.05;15.15;;;;;;;;;;5013749;28;20038;-39
2023/05/17 04:52:54;;;;;;;41.53;12.73;;;;;;;;;;5014025;28;20038;-38
2023/05/17 04:55:21;;;;;;;54.78;14.35;;;;;;;;;;5013931;28;20026;-38
2023/05/17 04:57:48;;;;;;;44.67;14.30;;;;;;;;;;5013732;28;20046;-39
2023/05/17 05:00:15;;;;;;;40.60;13.30;;;;;;;;;;5028736;28;20048;-38
2023/05/17 05:02:42;;;;;;;46.67;12.95;;;;;;;;;;5013746;28;20085;-38
2023/05/17 05:05:10;;;;;;;39.40;13.32;;;;;;;;;;5013748;28;20026;-38
2023/05/17 05:07:38;;;;;;;42.10;13.55;;;;;;;;;;5013677;28;20030;-38
2023/05/17 05:10:06;;;;;;;39.70;12.65;;;;;;;;;;5013558;28;20041;-38
2023/05/17 05:12:33;;;;;;;39.03;12.57;;;;;;;;;;5013607;28;20022;-38
2023/05/17 05:15:00;;;;;;;43.60;12.85;;;;;;;;;;5013605;28;20037;-38
2023/05/17 05:17:27;;;;;;;35.90;11.90;;;;;;;;;;5013569;28;20116;-38
2023/05/17 05:19:53;;;;;;;38.67;12.13;;;;;;;;;;5013410;28;20042;-37
2023/05/17 05:22:20;;;;;;;36.00;12.77;;;;;;;;;;5013321;28;20041;-38
2023/05/17 05:24:47;;;;;;;45.42;12.38;;;;;;;;;;5013445;28;20026;-38
2023/05/17 05:27:14;;;;;;;38.33;12.15;;;;;;;;;;5013333;28;20096;-39
2023/05/17 05:29:41;;;;;;;39.80;12.63;;;;;;;;;;5013320;28;20125;-38
2023/05/17 05:32:08;;;;;;;35.17;11.88;;;;;;;;;;5013216;28;20053;-38
2023/05/17 05:34:35;;;;;;;35.65;11.85;;;;;;;;;;5013246;28;20096;-40
2023/05/17 05:37:02;;;;;;;33.55;11.45;;;;;;;;;;5013403;28;20556;-38
2023/05/17 05:39:29;;;;;;;29.77;11.48;;;;;;;;;;5013019;28;20442;-38
2023/05/17 05:41:56;;;;;;;34.97;11.25;;;;;;;;;;5013023;28;20030;-38
2023/05/17 05:44:23;;;;;;;37.30;11.75;;;;;;;;;;5012747;28;20018;-38
2023/05/17 05:46:50;;;;;;;34.67;11.23;;;;;;;;;;5012959;28;20026;-39
2023/05/17 05:49:17;;;;;;;32.58;11.75;;;;;;;;;;5012857;28;20030;-38
2023/05/17 05:51:44;;;;;;;35.92;10.65;;;;;;;;;;5012615;28;20084;-36
2023/05/17 05:54:13;;;;;;;32.30;11.15;;;;;;;;;;5012869;28;20030;-36
2023/05/17 05:56:40;;;;;;;32.13;11.00;;;;;;;;;;5012604;28;20120;-35
2023/05/17 05:59:07;;;;;;;28.73;10.23;;;;;;;;;;5012790;28;20038;-36
2023/05/17 06:01:34;;;;;;;34.67;11.32;;;;;;;;;;5010595;28;20034;-39
2023/05/17 06:04:01;;;;;;;29.83;11.00;;;;;;;;;;5012519;28;20034;-37
2023/05/17 06:06:28;;;;;;;35.65;10.60;;;;;;;;;;5012687;28;20499;-38
2023/05/17 06:08:55;;;;;;;30.15;10.88;;;;;;;;;;5012641;28;20029;-39
2023/05/17 06:11:24;;;;;;;28.60;11.00;;;;;;;;;;5012299;28;20022;-38
2023/05/17 06:13:51;;;;;;;30.83;10.82;;;;;;;;;;5012543;28;20036;-38
2023/05/17 06:16:18;;;;;;;32.22;10.40;;;;;;;;;;5012361;28;20522;-38
2023/05/17 06:18:45;;;;;;;30.15;10.50;;;;;;;;;;5012471;28;20026;-38
2023/05/17 06:21:14;;;;;;;27.33;9.95;;;;;;;;;;5012205;28;20033;-39
2023/05/17 06:23:41;;;;;;;27.65;9.85;;;;;;;;;;5012245;28;20026;-38
2023/05/17 06:26:09;;;;;;;27.65;10.50;;;;;;;;;;5012354;28;20396;-39
2023/05/17 06:28:37;;;;;;;24.88;9.52;;;;;;;;;;5012444;28;20109;-38
2023/05/17 06:31:04;;;;;;;27.02;10.45;;;;;;;;;;5012165;28;20034;-38
2023/05/17 06:33:31;;;;;;;31.15;10.57;;;;;;;;;;5012127;28;20041;-38
2023/05/17 06:35:58;;;;;;;31.45;10.80;;;;;;;;;;5012226;28;20129;-38
2023/05/17 06:38:25;;;;;;;25.88;10.45;;;;;;;;;;5012152;28;20508;-37
2023/05/17 06:40:53;;;;;;;26.48;10.25;;;;;;;;;;5011950;28;20030;-38
2023/05/17 06:43:20;;;;;;;27.05;10.10;;;;;;;;;;5012060;28;20542;-38
2023/05/17 06:45:47;;;;;;;31.35;10.65;;;;;;;;;;5012099;28;20022;-38
2023/05/17 06:48:14;;;;;;;23.92;9.48;;;;;;;;;;5011915;28;20633;-38
2023/05/17 06:50:41;;;;;;;24.98;10.02;;;;;;;;;;5011868;28;20033;-38
2023/05/17 06:53:08;;;;;;;28.40;10.60;;;;;;;;;;5011893;28;20117;-38
2023/05/17 06:55:35;;;;;;;26.75;10.38;;;;;;;;;;5011330;28;20458;-38
2023/05/17 06:58:02;;;;;;;25.17;9.63;;;;;;;;;;5011678;28;20046;-38
2023/05/17 07:00:29;;;;;;;22.88;8.60;;;;;;;;;;5011793;28;20104;-38
2023/05/17 07:02:56;;;;;;;23.42;9.68;;;;;;;;;;5026949;28;20096;-38
2023/05/17 07:05:23;;;;;;;23.05;9.23;;;;;;;;;;5011820;28;20468;-38
2023/05/17 07:07:51;;;;;;;27.05;10.15;;;;;;;;;;5011862;28;20026;-38
2023/05/17 07:10:18;;;;;;;26.48;9.77;;;;;;;;;;5011510;28;20037;-38
2023/05/17 07:12:44;;;;;;;26.63;10.30;;;;;;;;;;5011743;28;20076;-38
2023/05/17 07:15:12;;;;;;;24.02;9.43;;;;;;;;;;5011782;28;20502;-37
2023/05/17 07:17:39;;;;;;;28.27;10.20;;;;;;;;;;5011730;28;20064;-38
2023/05/17 07:20:06;;;;;;;26.40;9.80;;;;;;;;;;5011599;28;20042;-38
2023/05/17 07:22:33;;;;;;;22.05;9.02;;;;;;;;;;5011665;28;20022;-38
2023/05/17 07:25:00;;;;;;;22.52;9.23;;;;;;;;;;5011669;28;20456;-38
2023/05/17 07:27:27;;;;;;;27.35;9.52;;;;;;;;;;5011617;28;20411;-37
2023/05/17 07:29:54;;;;;;;25.48;9.60;;;;;;;;;;5011602;28;20057;-39
2023/05/17 07:32:21;;;;;;;24.88;9.10;;;;;;;;;;5011654;28;20021;-38
2023/05/17 07:34:48;;;;;;;25.25;9.73;;;;;;;;;;5011661;28;20022;-38
2023/05/17 07:37:15;;;;;;;25.70;9.20;;;;;;;;;;5011615;28;20050;-38
2023/05/17 07:39:42;;;;;;;27.45;9.68;;;;;;;;;;5160543;22;20739;-41
2023/05/17 07:42:09;;;;;;;24.90;8.68;;;;;;;;;;4990865;28;20049;-42
2023/05/17 07:44:36;;;;;;;22.80;9.68;;;;;;;;;;4992449;28;20033;-43
2023/05/17 07:47:04;;;;;;;23.95;8.85;;;;;;;;;;4991872;28;20023;-43
2023/05/17 07:49:31;;;;;;;23.83;8.95;;;;;;;;;;4991756;28;20035;-44
2023/05/17 07:51:58;;;;;;;22.02;8.13;;;;;;;;;;4991799;28;20033;-42
2023/05/17 07:54:28;;;;;;;21.08;9.02;;;;;;;;;;4991790;28;20058;-43
2023/05/17 07:56:55;;;;;;;17.88;8.85;;;;;;;;;;4990451;28;20459;-42
2023/05/17 07:59:22;;;;;;;23.42;8.98;;;;;;;;;;4991667;28;20026;-42
2023/05/17 08:01:50;;;;;;;21.30;8.32;;;;;;;;;;4991647;28;20023;-42
2023/05/17 08:04:17;;;;;;;19.17;8.52;;;;;;;;;;4991687;28;20032;-42
2023/05/17 08:06:47;;;;;;;23.75;8.73;;;;;;;;;;4993537;28;20035;-42
2023/05/17 08:09:18;;;;;;;19.63;8.02;;;;;;;;;;4995128;28;20381;-42
2023/05/17 08:11:45;;;;;;;23.05;8.63;;;;;;;;;;4994941;28;20042;-42
2023/05/17 08:14:13;;;;;;;21.40;8.38;;;;;;;;;;4995025;28;20097;-42
2023/05/17 08:16:41;;;;;;;16.95;7.63;;;;;;;;;;4994985;28;20161;-42
2023/05/17 08:19:08;;;;;;;18.80;8.82;;;;;;;;;;4994976;28;20031;-42
2023/05/17 08:21:36;;;;;;;22.65;8.60;;;;;;;;;;4994778;28;20109;-42
2023/05/17 08:24:03;;;;;;;24.38;8.55;;;;;;;;;;4994576;28;20038;-44
2023/05/17 08:26:30;;;;;;;21.35;8.98;;;;;;;;;;4994813;28;20046;-43
2023/05/17 08:28:57;;;;;;;20.15;7.93;;;;;;;;;;4994730;28;20109;-44
2023/05/17 08:31:24;;;;;;;21.63;8.45;;;;;;;;;;4994703;28;20034;-45
2023/05/17 08:33:50;;;;;;;20.48;8.40;;;;;;;;;;4994684;28;20118;-44
2023/05/17 08:36:17;;;;;;;19.50;8.27;;;;;;;;;;4994615;28;20073;-44
2023/05/17 08:38:45;;;;;;;20.95;8.52;;;;;;;;;;4994582;28;20115;-45
2023/05/17 08:41:13;;;;;;;21.10;8.00;;;;;;;;;;4994247;28;20129;-44
2023/05/17 08:43:40;;;;;;;20.27;8.48;;;;;;;;;;4994548;28;20050;-45
2023/05/17 08:46:08;;;;;;;18.25;7.75;;;;;;;;;;4994547;28;20033;-45
2023/05/17 08:48:40;;;;;;;16.80;7.88;;;;;;;;;;4994323;28;20030;-44
2023/05/17 08:51:06;;;;;;;;;;;;;;;;;;4994577;28;20603;-44
2023/05/17 08:53:34;;;;;;;18.25;7.70;;;;;;;;;;4994449;28;19956;-44
2023/05/17 08:56:02;;;;;;;18.92;7.45;;;;;;;;;;4994282;28;20030;-44
2023/05/17 08:58:33;;;;;;;19.27;8.15;;;;;;;;;;4994401;28;20041;-42
2023/05/17 09:01:01;;;;;;;18.27;8.40;;;;;;;;;;4994048;28;20041;-42
2023/05/17 09:03:29;;;;;;;15.60;7.30;;;;;;;;;;4994137;28;20022;-44
2023/05/17 09:05:57;;;;;;;14.68;7.00;;;;;;;;;;4994101;28;20093;-44
2023/05/17 09:08:24;;;;;;;19.10;7.78;;;;;;;;;;4993990;28;20507;-43
2023/05/17 09:10:51;;;;;;;17.60;7.45;;;;;;;;;;4993942;28;20034;-43
2023/05/17 09:13:18;;;;;;;19.98;8.18;;;;;;;;;;4993879;28;20018;-43
2023/05/17 09:15:48;;;;;;;15.13;7.47;;;;;;;;;;4993862;28;20092;-44
2023/05/17 09:18:15;;;;;;;15.10;7.45;;;;;;;;;;4993223;28;20018;-44
2023/05/17 09:20:42;;;;;;;20.48;8.10;;;;;;;;;;4993594;28;20053;-44
2023/05/17 09:23:13;;;;;;;17.33;7.90;;;;;;;;;;4993701;28;20019;-43
2023/05/17 09:25:49;;;;;;;15.85;7.57;;;;;;;;;;4993740;28;20520;-44
2023/05/17 09:28:22;;;;;;;18.15;7.40;;;;;;;;;;4993171;28;20022;-41
2023/05/17 09:30:49;;;;;;;18.02;7.60;;;;;;;;;;4992114;28;20113;-41
2023/05/17 09:33:16;;;;;;;13.48;7.25;;;;;;;;;;4993609;28;20026;-42
2023/05/17 09:35:45;;;;;;;17.70;7.65;;;;;;;;;;4993483;28;20492;-43
2023/05/17 09:38:13;;;;;;;18.15;8.10;;;;;;;;;;4993479;28;20375;-43
2023/05/17 09:40:40;;;;;;;22.20;7.50;;;;;;;;;;4991798;28;20058;-43
2023/05/17 09:43:07;;;;;;;18.48;7.63;;;;;;;;;;4993165;28;20077;-44
2023/05/17 09:45:38;;;;;;;18.23;8.50;;;;;;;;;;4993022;28;20034;-44
2023/05/17 09:48:15;;;;;;;20.25;7.65;;;;;;;;;;4993138;28;20407;-43
2023/05/17 09:50:48;;;;;;;16.60;7.90;;;;;;;;;;4993262;28;20030;-43
2023/05/17 09:53:28;;;;;;;20.55;7.28;;;;;;;;;;4993182;28;20022;-43
2023/05/17 09:55:59;;;;;;;15.80;7.93;;;;;;;;;;4993205;28;20026;-43
2023/05/17 09:58:28;;;;;;;18.63;7.00;;;;;;;;;;4993116;28;20026;-43
2023/05/17 10:00:58;;;;;;;24.60;7.40;;;;;;;;;;4992926;28;20030;-43
2023/05/17 10:03:30;;;;;;;23.92;8.13;;;;;;;;;;4992959;28;20558;-43
2023/05/17 10:05:57;;;;;;;19.50;6.90;;;;;;;;;;4993009;28;20030;-43
2023/05/17 10:08:26;;;;;;;20.20;7.43;;;;;;;;;;4992890;28;20049;-43
2023/05/17 10:10:55;;;;;;;18.50;7.82;;;;;;;;;;4991831;28;20034;-44
2023/05/17 10:13:24;;;;;;;23.45;8.07;;;;;;;;;;4992935;28;20018;-43
2023/05/17 10:15:52;;;;;;;15.15;7.28;;;;;;;;;;4992837;28;20023;-44
2023/05/17 10:18:19;;;;;;;16.77;6.65;;;;;;;;;;4991532;28;20085;-43
2023/05/17 10:20:47;;;;;;;17.40;7.65;;;;;;;;;;4992383;28;20416;-43
2023/05/17 10:23:15;;;;;;;21.48;7.97;;;;;;;;;;4992782;28;20023;-44
2023/05/17 10:25:43;;;;;;;15.07;7.35;;;;;;;;;;4992711;28;20033;-44
2023/05/17 10:28:11;;;;;;;20.88;8.52;;;;;;;;;;4992651;28;20492;-43
2023/05/17 10:30:38;;;;;;;16.73;7.32;;;;;;;;;;4991584;28;20033;-44
2023/05/17 10:33:07;;;;;;;17.20;7.20;;;;;;;;;;4992537;28;20093;-44
2023/05/17 10:35:35;;;;;;;18.13;7.32;;;;;;;;;;4992463;28;20034;-43
2023/05/17 10:38:02;;;;;;;15.90;6.97;;;;;;;;;;4991212;28;20070;-42
2023/05/17 10:40:30;;;;;;;16.88;6.85;;;;;;;;;;4989287;28;20492;-43
2023/05/17 10:43:01;;;;;;;18.30;7.53;;;;;;;;;;4992136;28;20031;-43
2023/05/17 10:45:28;;;;;;;12.98;6.45;;;;;;;;;;4991427;28;20388;-42
2023/05/17 10:47:55;;;;;;;19.65;7.00;;;;;;;;;;4989091;28;20074;-43
2023/05/17 10:50:24;;;;;;;16.02;7.43;;;;;;;;;;4991038;28;20033;-43
2023/05/17 10:52:52;;;;;;;18.23;7.32;;;;;;;;;;4990854;28;20022;-41
2023/05/17 10:55:22;;;;;;;18.52;7.22;;;;;;;;;;4990941;28;20542;-43
2023/05/17 10:58:16;;;;;;;20.52;7.35;;;;;;;;;;4990878;28;20034;-42
2023/05/17 11:00:53;;;;;;;18.15;7.30;;;;;;;;;;4986397;28;20407;-43
2023/05/17 11:03:23;;;;;;;18.17;7.10;;;;;;;;;;4988917;28;20042;-43
2023/05/17 11:06:05;;;;;;;15.88;6.65;;;;;;;;;;4984565;28;20477;-43
2023/05/17 11:08:33;;;;;;;22.30;6.97;;;;;;;;;;4990880;28;20476;-42
2023/05/17 11:11:13;;;;;;;14.40;6.80;;;;;;;;;;4990747;28;20392;-43
2023/05/17 11:13:50;;;;;;;16.42;7.00;;;;;;;;;;4989120;28;20073;-43
2023/05/17 11:16:18;;;;;;;17.17;7.57;;;;;;;;;;4988635;28;20041;-43
2023/05/17 11:18:48;;;;;;;17.95;7.32;;;;;;;;;;4991836;28;20038;-43
2023/05/17 11:21:15;;;;;;;17.00;7.43;;;;;;;;;;4991802;28;20037;-43
2023/05/17 11:23:43;;;;;;;19.13;6.95;;;;;;;;;;4991051;28;20038;-43
2023/05/17 11:26:17;;;;;;;19.42;6.97;;;;;;;;;;4983891;28;20815;-47
2023/05/17 11:28:44;;;;;;;20.65;6.70;;;;;;;;;;4989161;28;20034;-46
2023/05/17 11:31:11;;;;;;;16.23;6.70;;;;;;;;;;4990248;28;20571;-44
2023/05/17 11:33:41;;;;;;;20.40;7.15;;;;;;;;;;4990278;28;20435;-44
2023/05/17 11:36:28;;;;;;;23.30;7.18;;;;;;;;;;4989887;28;20027;-45
2023/05/17 11:39:11;;;;;;;22.15;6.75;;;;;;;;;;4989247;28;20045;-45
2023/05/17 11:41:41;;;;;;;18.08;6.90;;;;;;;;;;4988544;28;20139;-44
2023/05/17 11:44:09;;;;;;;21.48;6.82;;;;;;;;;;4991806;28;20034;-45
2023/05/17 11:46:37;;;;;;;20.73;6.78;;;;;;;;;;4994185;28;20057;-44
2023/05/17 11:49:07;;;;;;;20.00;7.47;;;;;;;;;;4990989;28;20105;-46
2023/05/17 11:51:35;;;;;;;19.08;7.10;;;;;;;;;;4992571;28;20030;-47
2023/05/17 11:54:05;;;;;;;23.92;7.38;;;;;;;;;;4994005;28;20030;-44
2023/05/17 11:56:35;;;;;;;22.58;7.80;;;;;;;;;;4993012;28;21435;-45
2023/05/17 11:59:04;;;;;;;24.33;7.07;;;;;;;;;;4991171;28;20604;-47
2023/05/17 12:01:44;;;;;;;27.20;7.47;;;;;;;;;;4992080;28;20121;-47
2023/05/17 12:04:11;;;;;;;20.98;6.90;;;;;;;;;;4989958;28;20721;-45
2023/05/17 12:06:39;;;;;;;22.92;7.32;;;;;;;;;;4990787;28;20077;-44
2023/05/17 12:09:09;;;;;;;21.98;8.00;;;;;;;;;;4993809;28;20027;-46
2023/05/17 12:11:38;;;;;;;20.05;7.55;;;;;;;;;;4993084;28;20053;-43
2023/05/17 12:14:06;;;;;;;19.17;7.13;;;;;;;;;;4994211;28;20042;-43
2023/05/17 12:16:35;;;;;;;23.65;7.38;;;;;;;;;;4994586;28;20077;-47
2023/05/17 12:19:02;;;;;;;17.45;6.75;;;;;;;;;;4993316;28;20022;-46
2023/05/17 12:21:29;;;;;;;18.35;7.03;;;;;;;;;;4992091;28;20121;-46
2023/05/17 12:23:56;;;;;;;19.02;7.38;;;;;;;;;;4992643;28;20038;-45
2023/05/17 12:26:23;;;;;;;28.88;7.38;;;;;;;;;;4993016;28;20362;-47
2023/05/17 12:28:55;;;;;;;32.58;7.75;;;;;;;;;;4993080;28;20085;-50
2023/05/17 12:31:30;;;;;;;19.70;7.32;;;;;;;;;;4992562;28;20110;-47
2023/05/17 12:33:58;;;;;;;17.10;7.20;;;;;;;;;;4991361;28;20069;-48
2023/05/17 12:36:25;;;;;;;24.45;7.35;;;;;;;;;;4990581;28;20404;-48
2023/05/17 12:38:53;;;;;;;21.80;7.57;;;;;;;;;;4993809;28;20050;-45
2023/05/17 12:41:21;;;;;;;20.92;7.03;;;;;;;;;;4993713;28;20053;-44
2023/05/17 12:43:49;;;;;;;27.33;7.30;;;;;;;;;;4992272;28;20103;-46
2023/05/17 12:46:20;;;;;;;21.05;7.07;;;;;;;;;;4993815;28;20496;-45
2023/05/17 12:48:47;;;;;;;20.60;7.28;;;;;;;;;;4994145;28;20069;-46
2023/05/17 12:51:15;;;;;;;19.10;7.25;;;;;;;;;;4993841;28;20058;-48
2023/05/17 12:53:42;;;;;;;20.17;7.32;;;;;;;;;;4991624;28;20109;-52
2023/05/17 12:56:14;;;;;;;19.60;7.00;;;;;;;;;;4993370;28;20037;-48
2023/05/17 12:58:41;;;;;;;;;;;;;;;;;;4993591;28;20063;-48
2023/05/17 13:01:13;;;;;;;17.67;7.88;;;;;;;;;;4990231;28;20032;-47
2023/05/17 13:03:40;;;;;;;18.27;7.40;;;;;;;;;;4992593;28;20120;-47
2023/05/17 13:06:08;;;;;;;18.58;7.90;;;;;;;;;;5009826;28;20087;-47
2023/05/17 13:08:36;;;;;;;20.83;7.57;;;;;;;;;;4992700;28;20547;-47
2023/05/17 13:11:10;;;;;;;17.55;7.55;;;;;;;;;;4992872;28;20113;-46
2023/05/17 13:13:37;;;;;;;23.52;7.57;;;;;;;;;;4993316;28;20026;-47
2023/05/17 13:16:05;;;;;;;27.88;7.72;;;;;;;;;;4992042;28;20034;-48
2023/05/17 13:18:46;;;;;;;27.42;8.45;;;;;;;;;;4993353;28;20041;-48
2023/05/17 13:21:13;;;;;;;21.65;8.07;;;;;;;;;;4993653;28;20436;-48
2023/05/17 13:23:44;;;;;;;29.65;7.90;;;;;;;;;;4991526;28;20049;-47
2023/05/17 13:26:11;;;;;;;21.58;7.88;;;;;;;;;;4990893;28;20463;-47
2023/05/17 13:28:39;;;;;;;28.58;8.48;;;;;;;;;;4992824;28;20036;-47
2023/05/17 13:31:06;;;;;;;20.95;7.63;;;;;;;;;;4992467;28;20064;-46
2023/05/17 13:33:33;;;;;;;25.63;7.82;;;;;;;;;;4992835;28;20022;-47
2023/05/17 13:36:00;;;;;;;28.48;8.35;;;;;;;;;;4991230;28;20439;-46
2023/05/17 13:38:27;;;;;;;23.30;8.38;;;;;;;;;;4991330;28;20030;-46
2023/05/17 13:40:54;;;;;;;19.90;7.63;;;;;;;;;;4991915;28;20070;-49
2023/05/17 13:43:22;;;;;;;25.67;7.45;;;;;;;;;;4992443;28;20034;-46
2023/05/17 13:45:53;;;;;;;20.58;7.18;;;;;;;;;;4992147;28;20065;-47
2023/05/17 13:48:20;;;;;;;22.35;7.15;;;;;;;;;;4993161;28;20034;-48
2023/05/17 13:50:47;;;;;;;23.38;7.55;;;;;;;;;;4992805;28;20117;-46
2023/05/17 13:53:14;;;;;;;24.50;7.75;;;;;;;;;;4992516;28;20050;-49
2023/05/17 13:55:41;;;;;;;23.73;6.68;;;;;;;;;;4991598;28;20174;-46
2023/05/17 13:58:08;;;;;;;18.13;7.10;;;;;;;;;;4992691;28;20034;-48
2023/05/17 14:00:35;;;;;;;19.85;7.40;;;;;;;;;;4992796;28;20042;-46
2023/05/17 14:03:02;;;;;;;20.08;7.53;;;;;;;;;;4991546;28;20668;-48
2023/05/17 14:08:34;;;;;;;23.48;7.40;;;;;;;;;;4987823;28;20041;-47
2023/05/17 14:11:01;;;;;;;21.33;7.72;;;;;;;;;;4988958;28;20122;-45
2023/05/17 14:13:28;;;;;;;34.53;8.13;;;;;;;;;;4991543;28;20028;-47
2023/05/17 14:15:55;;;;;;;22.17;7.00;;;;;;;;;;4992211;28;20042;-49
2023/05/17 14:18:22;;;;;;;35.53;7.00;;;;;;;;;;4991454;28;20384;-48
2023/05/17 14:20:52;;;;;;;22.13;6.65;;;;;;;;;;4990832;28;20393;-48
2023/05/17 14:23:19;;;;;;;30.30;7.35;;;;;;;;;;4989338;28;20483;-48
2023/05/17 14:25:48;;;;;;;24.60;7.70;;;;;;;;;;4991729;28;20369;-47
2023/05/17 14:28:18;;;;;;;23.08;6.88;;;;;;;;;;4992112;28;20034;-44
2023/05/17 14:30:46;;;;;;;34.03;7.60;;;;;;;;;;4990036;28;20026;-49
2023/05/17 14:33:13;;;;;;;21.45;7.25;;;;;;;;;;4990715;28;20061;-48